Time;durP1;ratioP1;P1;durP2;ratioP2;P2;SDS_P1;SDS_P2;PMS_P1;PMS_P2;Temp;Humidity;BMP_temperature;BMP_pressure;BME280_temperature;BME280_humidity;BME280_pressure;Samples;Min_cycle;Max_cycle;Signal;HPM_P1;HPM_P2
2023/07/28 00:00:32;;;;;;;4.38;3.97;;;;;;;-143.21;52.60;71925.44;5112480;28;20593;-89
2023/07/28 00:02:59;;;;;;;4.72;4.32;;;;;;;-143.21;52.93;71929.41;5110817;27;20196;-87
2023/07/28 00:05:26;;;;;;;6.32;4.85;;;;;;;-143.21;52.89;71925.44;5110732;27;20340;-88
2023/07/28 00:07:53;;;;;;;8.73;4.63;;;;;;;-143.21;53.21;71933.38;5108957;27;20218;-88
2023/07/28 00:10:19;;;;;;;6.03;4.60;;;;;;;-143.21;53.59;71941.31;5113283;27;20253;-88
2023/07/28 00:12:48;;;;;;;5.60;5.10;;;;;;;-143.21;53.60;71947.25;5118421;27;20211;-87
2023/07/28 00:15:17;;;;;;;6.97;4.40;;;;;;;-143.21;53.54;71941.31;5117352;27;20203;-86
2023/07/28 00:17:44;;;;;;;5.53;4.28;;;;;;;-143.21;53.25;71935.34;5122594;27;20195;-86
2023/07/28 00:20:12;;;;;;;4.85;4.35;;;;;;;-143.21;53.26;71933.38;5108233;28;20204;-86
2023/07/28 00:22:39;;;;;;;5.20;4.70;;;;;;;-143.21;53.09;71941.31;5107647;28;20208;-87
2023/07/28 00:25:06;;;;;;;6.10;4.60;;;;;;;-143.21;53.12;71939.31;5108413;28;20219;-87
2023/07/28 00:27:33;;;;;;;5.77;4.90;;;;;;;-143.21;53.38;71953.19;5113852;27;20192;-88
2023/07/28 00:30:00;;;;;;;6.30;4.57;;;;;;;-143.21;53.51;71951.22;5120075;27;20222;-89
2023/07/28 00:32:28;;;;;;;5.53;4.87;;;;;;;-143.21;53.42;71953.19;5109861;28;20208;-89
2023/07/28 00:34:55;;;;;;;4.87;4.47;;;;;;;-143.21;53.61;71963.13;5109649;28;20188;-89
2023/07/28 00:37:22;;;;;;;5.03;4.45;;;;;;;-143.21;53.70;71967.09;5110415;27;20196;-90
2023/07/28 00:39:49;;;;;;;5.77;4.50;;;;;;;-143.21;53.96;71978.97;5109105;27;20960;-89
2023/07/28 00:42:16;;;;;;;5.10;4.60;;;;;;;-143.21;54.01;71984.94;5109041;28;20661;-88
2023/07/28 00:44:43;;;;;;;5.87;4.80;;;;;;;-143.21;54.17;71984.94;5107533;28;20218;-87
2023/07/28 00:47:09;;;;;;;5.93;4.63;;;;;;;-143.21;54.41;71998.81;5109891;28;20199;-87
2023/07/28 00:49:40;;;;;;;6.90;4.80;;;;;;;-143.21;54.55;72008.72;5109991;28;20207;-87
2023/07/28 00:52:08;;;;;;;7.87;4.80;;;;;;;-143.21;54.93;72018.63;5109283;28;20239;-87
2023/07/28 00:54:37;;;;;;;7.17;4.87;;;;;;;-143.21;54.99;72018.63;5109740;28;20203;-84
2023/07/28 00:57:05;;;;;;;5.83;4.60;;;;;;;-143.21;54.97;72014.69;5109184;28;20207;-84
2023/07/28 00:59:32;;;;;;;6.17;5.17;;;;;;;-143.21;55.10;72018.63;5107761;28;20203;-85
2023/07/28 01:01:59;;;;;;;6.97;5.10;;;;;;;-143.21;55.20;72014.69;5108716;28;20219;-84
2023/07/28 01:04:26;;;;;;;7.53;5.10;;;;;;;-143.21;55.06;72016.66;5109884;28;20196;-83
2023/07/28 01:07:05;;;;;;;5.27;4.77;;;;;;;-143.21;55.14;72034.50;5109599;28;20208;-83
2023/07/28 01:09:38;;;;;;;5.43;4.77;;;;;;;-143.21;55.06;72036.50;5113055;28;20204;-83
2023/07/28 01:12:09;;;;;;;6.40;4.63;;;;;;;-143.21;55.01;72040.44;5109377;28;20280;-83
2023/07/28 01:14:36;;;;;;;5.33;4.83;;;;;;;-143.21;55.09;72048.38;5108590;28;20219;-83
2023/07/28 01:17:03;;;;;;;6.07;4.37;;;;;;;-143.21;55.28;72062.25;5109151;28;20219;-83
2023/07/28 01:19:36;;;;;;;5.50;4.90;;;;;;;-143.21;55.24;72068.22;5112619;28;20195;-84
2023/07/28 01:22:21;;;;;;;5.80;4.70;;;;;;;-143.21;55.25;72080.13;5120151;28;20200;-84
2023/07/28 01:24:56;;;;;;;5.43;4.93;;;;;;;-143.21;55.63;72084.06;5109364;28;20219;-84
2023/07/28 01:27:25;;;;;;;5.93;4.97;;;;;;;-143.21;55.85;72099.94;5107648;28;20300;-84
2023/07/28 01:29:52;;;;;;;8.53;5.03;;;;;;;-143.21;55.75;72105.91;5107364;28;20208;-84
2023/07/28 01:32:19;;;;;;;6.30;5.20;;;;;;;-143.21;56.11;72105.91;5109306;28;20235;-85
2023/07/28 01:34:46;;;;;;;7.17;5.10;;;;;;;-143.21;56.16;72101.94;5110338;28;20204;-86
2023/07/28 01:37:13;;;;;;;8.47;4.93;;;;;;;-143.21;56.27;72113.81;5109182;28;20204;-86
2023/07/28 01:39:40;;;;;;;5.07;4.57;;;;;;;-143.21;56.29;72115.81;5108999;28;20200;-86
2023/07/28 01:42:07;;;;;;;6.73;5.27;;;;;;;-143.21;56.45;72117.78;5121023;28;20202;-86
2023/07/28 01:44:35;;;;;;;5.90;5.13;;;;;;;-143.21;56.58;72127.72;5112345;28;20196;-86
2023/07/28 01:47:02;;;;;;;5.57;5.07;;;;;;;-143.21;56.41;72123.75;5120996;27;20205;-87
2023/07/28 01:49:29;;;;;;;6.50;4.90;;;;;;;-143.21;56.14;72121.75;5126488;27;20276;-88
2023/07/28 01:51:56;;;;;;;5.73;4.97;;;;;;;-143.21;55.91;72111.84;5129666;27;20231;-87
2023/07/28 01:54:23;;;;;;;7.03;4.70;;;;;;;-143.21;55.89;72109.84;5135291;27;20200;-87
2023/07/28 01:56:49;;;;;;;5.33;4.77;;;;;;;-143.21;55.94;72109.84;5124809;27;20211;-86
2023/07/28 01:59:16;;;;;;;6.97;4.67;;;;;;;-143.21;56.05;72111.84;5121258;27;20229;-86
2023/07/28 02:01:45;;;;;;;5.43;4.93;;;;;;;-143.21;56.09;72123.75;5126324;27;20283;-86
2023/07/28 02:04:11;;;;;;;5.63;5.07;;;;;;;-143.21;55.97;72121.75;5117525;27;20200;-87
2023/07/28 02:06:38;;;;;;;6.03;5.10;;;;;;;-143.21;56.40;72129.69;5112775;27;20204;-87
2023/07/28 02:09:05;;;;;;;6.30;5.37;;;;;;;-143.21;56.72;72125.72;5112927;27;20219;-88
2023/07/28 02:11:32;;;;;;;6.87;5.83;;;;;;;-143.21;56.90;72123.75;5113700;27;20258;-88
2023/07/28 02:13:59;;;;;;;6.77;5.90;;;;;;;-143.21;56.86;72125.72;5112730;28;20196;-88
2023/07/28 02:16:27;;;;;;;11.67;6.20;;;;;;;-143.21;56.77;72123.75;5113053;27;20555;-89
2023/07/28 02:18:57;;;;;;;8.47;6.13;;;;;;;-143.21;57.01;72131.69;5112568;27;20206;-88
2023/07/28 02:21:24;;;;;;;8.03;6.37;;;;;;;-143.21;57.18;72131.69;5112101;28;20206;-87
2023/07/28 02:23:51;;;;;;;8.63;6.30;;;;;;;-143.21;57.40;72139.59;5112611;27;20211;-87
2023/07/28 02:26:18;;;;;;;8.67;6.50;;;;;;;-143.21;57.42;72149.53;5110299;27;20218;-87
2023/07/28 02:28:44;;;;;;;6.50;5.63;;;;;;;-143.21;57.19;72143.56;5110694;27;20211;-87
2023/07/28 02:31:11;;;;;;;7.83;6.47;;;;;;;-143.21;57.44;72151.50;5117484;27;20776;-83
2023/07/28 02:33:38;;;;;;;10.60;6.47;;;;;;;-143.21;57.40;72153.47;5112221;27;20670;-83
2023/07/28 02:36:06;;;;;;;9.10;6.20;;;;;;;-143.21;57.32;72153.47;5112296;27;20204;-83
2023/07/28 02:38:33;;;;;;;10.90;6.27;;;;;;;-143.21;56.62;72149.53;5112067;28;20200;-88
2023/07/28 02:41:00;;;;;;;9.80;6.27;;;;;;;-143.21;56.40;72147.53;5112822;28;20196;-88
2023/07/28 02:43:27;;;;;;;7.50;6.17;;;;;;;-143.21;56.37;72145.56;5110650;27;20207;-89
2023/07/28 02:45:56;;;;;;;9.50;5.53;;;;;;;-143.21;56.08;72137.63;5112264;28;20219;-89
2023/07/28 02:48:22;;;;;;;8.27;6.13;;;;;;;-143.21;56.21;72131.69;5116125;27;20195;-89
2023/07/28 02:50:52;;;;;;;12.57;6.17;;;;;;;-143.21;56.35;72139.59;5122631;27;20257;-89
2023/07/28 02:53:20;;;;;;;9.50;5.47;;;;;;;-143.21;56.11;72135.63;5119555;27;20218;-89
2023/07/28 02:55:48;;;;;;;8.80;5.33;;;;;;;-143.21;56.11;72139.59;5114370;27;20192;-89
2023/07/28 02:58:16;;;;;;;7.57;5.03;;;;;;;-143.21;55.94;72139.59;5121362;27;20749;-89
2023/07/28 03:00:46;;;;;;;10.20;5.33;;;;;;;-143.21;56.16;72143.56;5116664;27;20203;-82
2023/07/28 03:03:13;;;;;;;7.00;5.00;;;;;;;-143.21;56.14;72141.59;5110868;27;20210;-83
2023/07/28 03:05:41;;;;;;;8.77;5.20;;;;;;;-143.21;56.06;72137.63;5110892;27;20318;-82
2023/07/28 03:08:07;;;;;;;8.13;4.83;;;;;;;-143.21;56.24;72147.53;5110380;27;20203;-83
2023/07/28 03:10:38;;;;;;;7.80;5.40;;;;;;;-143.21;56.08;72143.56;5111140;28;20245;-83
2023/07/28 03:13:05;;;;;;;11.47;5.33;;;;;;;-143.21;56.02;72143.56;5111723;27;20253;-81
2023/07/28 03:15:32;;;;;;;9.07;5.20;;;;;;;-143.21;56.65;72153.47;5110440;28;20200;-81
2023/07/28 03:17:59;;;;;;;7.60;5.00;;;;;;;-143.21;56.58;72153.47;5111916;27;20219;-83
2023/07/28 03:20:26;;;;;;;7.10;5.17;;;;;;;-143.21;56.25;72161.41;5108621;27;20226;-82
2023/07/28 03:22:54;;;;;;;5.53;4.77;;;;;;;-143.21;56.13;72161.41;5109602;27;20204;-83
2023/07/28 03:25:21;;;;;;;11.57;5.27;;;;;;;-143.21;56.37;72167.38;5111229;27;20655;-83
2023/07/28 03:27:50;;;;;;;8.23;5.40;;;;;;;-143.21;56.51;72171.34;5111334;27;20200;-83
2023/07/28 03:30:16;;;;;;;7.77;5.20;;;;;;;-143.21;56.28;72173.31;5110442;27;20204;-82
2023/07/28 03:32:43;;;;;;;10.07;5.20;;;;;;;-143.21;56.47;72173.31;5118545;27;20629;-83
2023/07/28 03:35:10;;;;;;;10.20;5.40;;;;;;;-143.21;56.45;72171.34;5110229;27;20212;-83
2023/07/28 03:37:37;;;;;;;8.73;5.17;;;;;;;-143.21;56.29;72173.31;5109439;28;20585;-82
2023/07/28 03:40:04;;;;;;;7.47;5.10;;;;;;;-143.21;56.85;72179.25;5111194;27;20200;-82
2023/07/28 03:42:31;;;;;;;6.33;5.57;;;;;;;-143.21;56.84;72187.19;5123133;27;20192;-82
2023/07/28 03:44:59;;;;;;;7.07;5.33;;;;;;;-143.21;56.91;72195.13;5108828;27;20200;-83
2023/07/28 03:47:26;;;;;;;7.43;5.43;;;;;;;-143.21;57.10;72193.16;5111012;28;20695;-82
2023/07/28 03:49:53;;;;;;;11.93;6.47;;;;;;;-143.21;57.34;72197.13;5111465;27;20698;-81
2023/07/28 03:52:20;;;;;;;11.40;6.30;;;;;;;-143.21;57.39;72191.16;5123679;27;20234;-82
2023/07/28 03:54:47;;;;;;;11.37;6.80;;;;;;;-143.21;57.56;72189.19;5111257;27;20705;-82
2023/07/28 03:57:13;;;;;;;15.43;6.80;;;;;;;-143.21;57.35;72195.13;5110507;27;20207;-82
2023/07/28 03:59:40;;;;;;;9.90;6.53;;;;;;;-143.21;57.48;72195.13;5110472;27;20308;-85
2023/07/28 04:02:08;;;;;;;9.40;5.87;;;;;;;-143.21;57.01;72191.16;5111224;27;20267;-86
2023/07/28 04:04:36;;;;;;;9.00;5.63;;;;;;;-143.21;56.87;72181.25;5111714;27;20547;-86
2023/07/28 04:07:03;;;;;;;13.57;5.67;;;;;;;-143.21;56.57;72181.25;5110954;27;20701;-86
2023/07/28 04:09:30;;;;;;;9.17;5.73;;;;;;;-143.21;56.77;72185.22;5110434;28;20207;-84
2023/07/28 04:11:57;;;;;;;11.23;6.10;;;;;;;-143.21;56.86;72191.16;5114523;27;20223;-81
2023/07/28 04:14:24;;;;;;;9.03;5.53;;;;;;;-143.21;56.95;72193.16;5109665;27;20200;-81
2023/07/28 04:16:51;;;;;;;7.67;5.67;;;;;;;-143.21;57.06;72187.19;5110617;27;20666;-82
2023/07/28 04:19:19;;;;;;;10.10;5.93;;;;;;;-143.21;56.90;72189.19;5110408;28;20210;-83
2023/07/28 04:21:46;;;;;;;9.53;5.70;;;;;;;-143.21;56.68;72185.22;5110382;27;20203;-82
2023/07/28 04:24:12;;;;;;;7.07;5.73;;;;;;;-143.21;56.94;72187.19;5110355;27;20240;-82
2023/07/28 04:26:39;;;;;;;6.53;5.20;;;;;;;-143.21;56.78;72181.25;5110827;27;20232;-82
2023/07/28 04:29:06;;;;;;;7.83;5.17;;;;;;;-143.21;56.14;72175.31;5110798;28;20215;-83
2023/07/28 04:31:33;;;;;;;6.60;5.40;;;;;;;-143.21;56.11;72173.31;5110309;27;20685;-82
2023/07/28 04:34:00;;;;;;;5.63;4.70;;;;;;;-143.21;56.03;72161.41;5109487;27;20678;-82
2023/07/28 04:36:28;;;;;;;6.50;4.90;;;;;;;-143.21;55.85;72163.41;5110112;27;20276;-82
2023/07/28 04:38:55;;;;;;;6.63;5.37;;;;;;;-143.21;55.53;72157.44;5110832;28;20196;-82
2023/07/28 04:41:22;;;;;;;7.53;4.90;;;;;;;-143.21;56.02;72157.44;5110330;28;20230;-82
2023/07/28 04:43:48;;;;;;;8.03;5.17;;;;;;;-143.21;56.10;72165.38;5110873;28;20264;-81
2023/07/28 04:46:15;;;;;;;8.00;5.10;;;;;;;-143.21;56.14;72163.41;5109123;28;20261;-81
2023/07/28 04:48:42;;;;;;;7.17;4.90;;;;;;;-143.21;56.21;72149.53;5114952;27;20200;-84
2023/07/28 04:51:11;;;;;;;6.17;5.10;;;;;;;-143.21;55.96;72143.56;5109762;28;20228;-82
2023/07/28 04:53:39;;;;;;;9.90;5.07;;;;;;;-143.21;55.97;72135.63;5110464;28;20305;-81
2023/07/28 04:56:07;;;;;;;10.70;5.43;;;;;;;-143.21;55.90;72127.72;5110039;27;20213;-82
2023/07/28 04:58:34;;;;;;;9.03;5.50;;;;;;;-143.21;55.58;72119.78;5110498;28;20265;-81
2023/07/28 05:01:02;;;;;;;12.83;5.43;;;;;;;-143.21;55.67;72113.81;5117177;28;20221;-81
2023/07/28 05:03:29;;;;;;;13.70;5.73;;;;;;;-143.21;55.56;72105.91;5111769;28;20608;-82
2023/07/28 05:05:56;;;;;;;7.43;5.67;;;;;;;-143.21;55.34;72103.91;5110900;28;20290;-82
2023/07/28 05:08:23;;;;;;;8.40;5.83;;;;;;;-143.21;55.66;72105.91;5110109;28;20625;-83
2023/07/28 05:10:51;;;;;;;7.67;5.43;;;;;;;-143.21;54.80;72078.13;5109287;28;20212;-81
2023/07/28 05:13:18;;;;;;;10.33;6.77;;;;;;;-143.21;54.77;72066.22;5109479;28;20891;-82
2023/07/28 05:15:45;;;;;;;8.20;5.47;;;;;;;-143.21;55.17;72064.25;5109937;28;20210;-82
2023/07/28 05:18:11;;;;;;;8.30;5.60;;;;;;;-143.21;54.98;72072.19;5109865;28;20600;-82
2023/07/28 05:20:38;;;;;;;10.43;5.73;;;;;;;-143.21;54.90;72076.16;5112918;28;20207;-82
2023/07/28 05:23:05;;;;;;;7.57;5.30;;;;;;;-143.21;54.87;72074.16;5114525;27;20195;-83
2023/07/28 05:25:32;;;;;;;15.47;5.87;;;;;;;-143.21;55.42;72086.06;5114483;27;20207;-83
2023/07/28 05:28:00;;;;;;;8.80;4.97;;;;;;;-143.21;55.35;72090.03;5112953;27;20211;-82
2023/07/28 05:30:27;;;;;;;8.60;5.63;;;;;;;-143.21;55.37;72090.03;5122140;27;20595;-82
2023/07/28 05:32:55;;;;;;;10.13;5.37;;;;;;;-143.21;55.11;72090.03;5102754;27;20284;-82
2023/07/28 05:35:21;;;;;;;11.97;5.33;;;;;;;-143.21;55.17;72090.03;5125104;27;20199;-81
2023/07/28 05:37:48;;;;;;;9.23;5.60;;;;;;;-143.21;55.49;72076.16;5113922;27;20689;-82
2023/07/28 05:40:15;;;;;;;10.80;5.47;;;;;;;-143.21;54.21;72022.59;5123191;27;20195;-82
2023/07/28 05:42:42;;;;;;;11.53;5.67;;;;;;;-143.21;53.57;72004.75;5118863;27;20589;-82
2023/07/28 05:45:11;;;;;;;8.70;5.20;;;;;;;-143.21;53.50;72006.75;5113707;28;20207;-84
2023/07/28 05:47:38;;;;;;;11.53;5.53;;;;;;;-143.21;53.16;72004.75;5112545;28;20659;-83
2023/07/28 05:50:06;;;;;;;7.57;5.10;;;;;;;-143.21;53.67;72012.69;5113432;28;20207;-84
2023/07/28 05:52:33;;;;;;;8.03;5.10;;;;;;;-143.21;53.28;72016.66;5112355;27;20236;-84
2023/07/28 05:55:00;;;;;;;7.73;5.60;;;;;;;-143.21;53.79;72014.69;5114119;27;20203;-84
2023/07/28 05:57:27;;;;;;;11.05;5.18;;;;;;;-143.21;53.65;72010.72;5113584;28;20203;-86
2023/07/28 05:59:53;;;;;;;11.07;5.40;;;;;;;-143.21;53.62;72002.78;5118500;27;20236;-84
2023/07/28 06:02:47;;;;;;;9.63;5.17;;;;;;;-143.21;53.86;71998.81;5115196;27;20208;-83
2023/07/28 06:05:14;;;;;;;17.83;5.30;;;;;;;-143.21;53.40;71994.84;5105040;28;20242;-83
2023/07/28 06:07:40;;;;;;;8.93;5.40;;;;;;;-143.21;53.28;71984.94;5113199;28;20189;-83
2023/07/28 06:10:08;;;;;;;8.93;5.53;;;;;;;-143.21;52.17;71929.41;5113303;28;20200;-83
2023/07/28 06:12:36;;;;;;;10.70;5.57;;;;;;;-143.21;51.33;71907.59;5113425;27;20866;-83
2023/07/28 06:15:03;;;;;;;11.05;5.60;;;;;;;-143.21;51.55;71897.69;5112544;27;20279;-83
2023/07/28 06:17:30;;;;;;;12.07;6.35;;;;;;;-143.21;50.88;71905.63;5112707;27;20227;-84
2023/07/28 06:19:59;;;;;;;8.82;5.90;;;;;;;-143.21;51.19;71901.66;5112327;27;20200;-83
2023/07/28 06:22:26;;;;;;;9.10;6.07;;;;;;;-143.21;51.20;71909.56;5111978;28;20199;-83
2023/07/28 06:24:52;;;;;;;10.60;6.13;;;;;;;-143.21;51.73;71907.59;5128893;27;20823;-83
2023/07/28 06:27:19;;;;;;;14.15;6.60;;;;;;;-143.21;51.75;71905.63;5121868;27;20211;-82
2023/07/28 06:29:46;;;;;;;9.50;5.95;;;;;;;-143.21;51.99;71895.69;5112600;28;20199;-83
2023/07/28 06:32:13;;;;;;;8.95;6.40;;;;;;;-143.21;51.86;71885.78;5111545;28;20219;-83
2023/07/28 06:34:40;;;;;;;8.95;5.90;;;;;;;-143.21;51.30;71871.91;5112761;27;20196;-84
2023/07/28 06:37:08;;;;;;;10.25;6.15;;;;;;;-143.21;51.05;71852.06;5112564;28;20198;-84
2023/07/28 06:39:35;;;;;;;10.18;5.90;;;;;;;-143.21;49.96;71812.41;5111585;27;20196;-84
2023/07/28 06:42:02;;;;;;;10.10;5.70;;;;;;;-143.21;49.52;71788.63;5111595;27;20883;-84
2023/07/28 06:44:29;;;;;;;15.32;6.20;;;;;;;-143.21;49.44;71788.63;5112324;27;20212;-84
2023/07/28 06:46:56;;;;;;;7.65;5.35;;;;;;;-143.21;49.17;71788.63;5117445;27;20199;-84
2023/07/28 06:49:23;;;;;;;11.50;6.10;;;;;;;-143.21;49.52;71794.56;5120906;27;20345;-83
2023/07/28 06:51:50;;;;;;;9.48;5.53;;;;;;;-143.21;49.73;71810.44;5112249;27;20231;-84
2023/07/28 06:54:18;;;;;;;11.25;5.75;;;;;;;-143.21;50.17;71814.41;5112578;28;20706;-84
2023/07/28 06:56:45;;;;;;;14.80;5.63;;;;;;;-143.21;49.63;71810.44;5111958;28;20222;-84
2023/07/28 06:59:12;;;;;;;12.80;5.60;;;;;;;-143.21;49.55;71794.56;5112456;27;20418;-83
2023/07/28 07:01:39;;;;;;;10.95;5.55;;;;;;;-143.21;49.67;71788.63;5124359;27;20717;-84
2023/07/28 07:04:06;;;;;;;12.40;5.43;;;;;;;-143.21;49.19;71746.97;5115946;27;20283;-83
2023/07/28 07:06:33;;;;;;;9.27;5.40;;;;;;;-143.21;49.71;71705.34;5112616;28;20208;-86
2023/07/28 07:09:00;;;;;;;10.38;5.47;;;;;;;-143.21;48.50;71669.66;5112419;27;20554;-81
2023/07/28 07:11:28;;;;;;;13.45;5.30;;;;;;;-143.21;47.90;71643.88;5112281;28;20214;-82
2023/07/28 07:13:55;;;;;;;6.93;4.70;;;;;;;-143.21;48.24;71622.06;5112148;27;20698;-85
2023/07/28 07:16:21;;;;;;;9.88;5.63;;;;;;;-143.21;46.19;71598.28;5111565;28;20231;-85
2023/07/28 07:18:48;;;;;;;10.18;5.20;;;;;;;-143.21;45.79;71596.28;5111095;27;20277;-85
2023/07/28 07:21:15;;;;;;;13.02;5.32;;;;;;;-143.21;45.85;71608.19;5112975;27;20563;-85
2023/07/28 07:23:42;;;;;;;7.63;5.07;;;;;;;-143.21;45.58;71622.06;5123806;27;20834;-86
2023/07/28 07:26:09;;;;;;;6.43;4.90;;;;;;;-143.21;46.50;71618.09;5111974;27;20666;-84
2023/07/28 07:28:37;;;;;;;8.40;5.10;;;;;;;-143.21;45.19;71596.28;5121098;27;20199;-84
2023/07/28 07:31:05;;;;;;;8.18;5.95;;;;;;;-143.21;45.08;71596.28;5115955;27;20196;-84
2023/07/28 07:33:36;;;;;;;6.50;5.07;;;;;;;-143.21;45.32;71590.34;5111472;28;20302;-84
2023/07/28 07:36:04;;;;;;;11.07;5.10;;;;;;;-143.21;45.36;71578.44;5110893;27;20212;-84
2023/07/28 07:38:30;;;;;;;12.32;5.88;;;;;;;-143.21;44.72;71586.38;5112638;27;20250;-84
2023/07/28 07:40:57;;;;;;;8.60;5.68;;;;;;;-143.21;45.09;71596.28;5123941;27;20203;-85
2023/07/28 07:43:24;;;;;;;9.77;5.55;;;;;;;-143.21;44.72;71572.50;5111190;27;20196;-86
2023/07/28 07:45:54;;;;;;;11.02;5.35;;;;;;;-143.21;44.69;71568.53;5112384;28;20651;-83
2023/07/28 07:48:21;;;;;;;9.13;5.00;;;;;;;-143.21;45.53;71578.44;5114791;27;20214;-86
2023/07/28 07:50:48;;;;;;;6.72;4.85;;;;;;;-143.21;46.14;71568.53;5113659;27;20232;-87
2023/07/28 07:53:15;;;;;;;15.30;5.30;;;;;;;-143.21;46.05;71550.69;5111042;27;20220;-88
2023/07/28 07:55:42;;;;;;;10.23;4.88;;;;;;;-143.21;45.77;71534.81;5111331;27;20204;-86
2023/07/28 07:58:09;;;;;;;9.82;4.90;;;;;;;-143.21;45.08;71516.97;5111397;28;20208;-87
2023/07/28 08:00:38;;;;;;;12.55;4.82;;;;;;;-143.21;44.75;71499.13;5111123;28;20572;-86
2023/07/28 08:03:06;;;;;;;7.60;5.20;;;;;;;-143.21;46.00;71485.25;5111994;27;20200;-88
2023/07/28 08:05:34;;;;;;;9.80;4.80;;;;;;;-143.21;45.33;71475.34;5105023;27;20196;-88
2023/07/28 08:08:01;;;;;;;14.55;4.50;;;;;;;-143.21;44.70;71455.53;5114475;28;20674;-87
2023/07/28 08:10:28;;;;;;;9.73;5.28;;;;;;;-143.21;43.84;71445.59;5117557;27;20204;-87
2023/07/28 08:12:56;;;;;;;8.43;5.10;;;;;;;-143.21;42.77;71413.88;5132946;27;20235;-88
2023/07/28 08:15:23;;;;;;;10.18;5.45;;;;;;;-143.21;42.22;71407.94;5120214;27;20211;-85
2023/07/28 08:17:50;;;;;;;9.80;5.13;;;;;;;-143.21;42.57;71384.16;5125177;27;20200;-87
2023/07/28 08:20:19;;;;;;;12.18;5.05;;;;;;;-143.21;42.86;71372.25;5115522;27;20207;-89
2023/07/28 08:22:45;;;;;;;8.63;4.93;;;;;;;-143.21;43.11;71352.44;5114386;28;20289;-90
2023/07/28 08:25:12;;;;;;;8.40;4.88;;;;;;;-143.21;41.99;71346.47;5111057;27;20204;-82
2023/07/28 08:27:39;;;;;;;10.00;4.40;;;;;;;-143.21;42.46;71338.53;5110884;28;20196;-83
2023/07/28 08:30:07;;;;;;;9.75;5.35;;;;;;;-143.21;41.03;71328.63;5109419;27;20666;-83
2023/07/28 08:32:34;;;;;;;7.95;4.90;;;;;;;-143.21;41.15;71342.50;5109750;28;20232;-83
2023/07/28 08:35:00;;;;;;;8.93;4.75;;;;;;;-143.21;41.41;71342.50;5110798;28;20261;-82
2023/07/28 08:37:29;;;;;;;11.00;5.45;;;;;;;-143.21;41.49;71336.56;5110507;28;20204;-82
2023/07/28 08:39:56;;;;;;;8.05;4.57;;;;;;;-143.21;41.72;71316.75;5111558;28;20292;-83
2023/07/28 08:42:23;;;;;;;11.13;4.82;;;;;;;-143.21;42.00;71290.97;5110178;28;20212;-82
2023/07/28 08:44:52;;;;;;;7.18;4.40;;;;;;;-143.21;40.88;71275.09;5111939;28;20231;-90
2023/07/28 08:47:19;;;;;;;9.85;4.75;;;;;;;-143.21;40.05;71273.13;5113304;28;20242;-90
2023/07/28 08:49:46;;;;;;;10.23;4.30;;;;;;;-143.21;39.42;71271.13;5111283;28;20640;-85
2023/07/28 08:52:16;;;;;;;11.40;4.68;;;;;;;-143.21;39.86;71259.25;5123851;27;20238;-83
2023/07/28 08:54:46;;;;;;;10.45;4.30;;;;;;;-143.21;39.17;71257.25;5110465;28;20204;-84
2023/07/28 08:57:13;;;;;;;8.52;4.68;;;;;;;-143.21;38.76;71287.00;5110573;28;20208;-85
2023/07/28 08:59:41;;;;;;;9.98;4.53;;;;;;;-143.21;39.65;71285.03;5110201;28;20754;-85
2023/07/28 09:02:10;;;;;;;9.93;4.40;;;;;;;-143.21;40.13;71269.16;5110089;28;20663;-84
2023/07/28 09:04:37;;;;;;;8.38;4.35;;;;;;;-143.21;40.53;71249.34;5109504;28;20705;-85
2023/07/28 09:07:06;;;;;;;11.63;5.20;;;;;;;-143.21;39.75;71227.53;5110445;28;20223;-88
2023/07/28 09:09:33;;;;;;;10.38;4.40;;;;;;;-143.21;40.17;71203.72;5110470;28;20212;-89
2023/07/28 09:12:02;;;;;;;8.80;4.63;;;;;;;-143.21;39.75;71187.88;5112025;28;20192;-89
2023/07/28 09:14:28;;;;;;;7.93;4.45;;;;;;;-143.21;41.05;71183.91;5118019;28;20215;-88
2023/07/28 09:16:55;;;;;;;8.27;4.07;;;;;;;-143.21;39.42;71154.16;5117421;27;20195;-88
2023/07/28 09:19:23;;;;;;;6.13;4.18;;;;;;;-143.21;39.15;71134.34;5111738;28;20211;-87
2023/07/28 09:21:59;;;;;;;15.45;6.40;;;;;;;-143.21;38.95;71114.53;5111268;28;20192;-87
2023/07/28 09:24:32;;;;;;;15.60;5.85;;;;;;;-143.21;38.16;71102.63;5110186;28;20269;-86
2023/07/28 09:27:01;;;;;;;9.13;4.85;;;;;;;-143.21;37.95;71086.75;5096985;28;21032;-87
2023/07/28 09:29:28;;;;;;;7.20;4.95;;;;;;;-143.21;37.24;71062.97;5111751;28;20249;-87
2023/07/28 09:32:04;;;;;;;5.53;4.28;;;;;;;-143.21;36.88;71029.28;5117912;28;20659;-86
2023/07/28 09:34:32;;;;;;;9.57;6.20;;;;;;;-143.21;37.24;70981.69;5109863;28;20223;-81
2023/07/28 09:37:00;;;;;;;8.02;4.38;;;;;;;-143.21;35.87;70969.81;5110179;28;20208;-83
2023/07/28 09:39:27;;;;;;;8.15;4.85;;;;;;;-143.21;36.68;70975.75;5109265;28;20206;-83
2023/07/28 09:41:57;;;;;;;10.07;5.82;;;;;;;-143.21;37.18;70959.91;5124295;28;20203;-82
2023/07/28 09:44:26;;;;;;;7.25;5.03;;;;;;;-143.21;37.08;70953.94;5110410;28;20582;-81
2023/07/28 09:46:56;;;;;;;9.48;4.60;;;;;;;-143.21;36.26;70942.06;5104915;28;20285;-83
2023/07/28 09:49:30;;;;;;;7.00;4.05;;;;;;;-143.21;35.74;70928.19;5109795;28;20283;-81
2023/07/28 09:52:04;;;;;;;8.93;4.50;;;;;;;-143.21;35.73;70912.31;5121725;28;20231;-82
2023/07/28 09:54:34;;;;;;;7.25;4.35;;;;;;;-143.21;35.40;70898.44;5109414;28;20208;-83
2023/07/28 09:57:02;;;;;;;7.28;4.20;;;;;;;-143.21;35.46;70892.50;5109113;28;20200;-82
2023/07/28 09:59:36;;;;;;;6.40;4.20;;;;;;;-143.21;35.01;70888.53;5110907;28;20204;-81
2023/07/28 10:02:03;;;;;;;7.90;4.15;;;;;;;-143.21;35.51;70894.47;5072312;28;20719;-82
2023/07/28 10:04:31;;;;;;;8.18;3.80;;;;;;;-143.21;34.39;70882.59;5098924;28;20204;-83
2023/07/28 10:06:59;;;;;;;8.60;3.90;;;;;;;-143.21;34.56;70880.59;5077275;27;20203;-83
2023/07/28 10:09:27;;;;;;;7.53;3.72;;;;;;;-143.21;34.35;70874.66;5086964;27;20601;-82
2023/07/28 10:11:55;;;;;;;12.60;3.78;;;;;;;-143.21;34.65;70860.78;5087548;27;20213;-81
2023/07/28 10:14:31;;;;;;;7.32;4.53;;;;;;;-143.21;35.29;70833.03;5094089;27;20833;-82
2023/07/28 10:16:59;;;;;;;14.93;4.35;;;;;;;-143.21;34.64;70821.13;5088236;27;20231;-85
2023/07/28 10:19:26;;;;;;;10.85;3.97;;;;;;;-143.21;34.24;70807.25;5083964;27;20214;-83
2023/07/28 10:22:00;;;;;;;7.70;4.80;;;;;;;-143.21;35.27;70811.22;5089594;27;20196;-84
2023/07/28 10:24:59;;;;;;;7.25;4.18;;;;;;;-143.21;35.14;70787.44;5086671;27;20227;-83
2023/07/28 10:27:31;;;;;;;11.55;4.10;;;;;;;-143.21;34.17;70767.63;5082427;27;20215;-84
2023/07/28 10:30:01;;;;;;;9.18;4.40;;;;;;;-143.21;34.66;70755.72;5084602;27;20203;-83
2023/07/28 10:32:29;;;;;;;8.65;3.80;;;;;;;-143.21;33.72;70745.81;5097713;27;20192;-85
2023/07/28 10:35:10;;;;;;;6.40;3.40;;;;;;;-143.21;33.34;70753.72;5109118;27;20225;-87
2023/07/28 10:37:37;;;;;;;7.43;4.07;;;;;;;-143.21;34.14;70733.91;5112066;27;20628;-86
2023/07/28 10:40:24;;;;;;;12.80;4.28;;;;;;;-143.21;34.03;70712.09;5111321;27;20196;-83
2023/07/28 10:42:52;;;;;;;6.47;3.90;;;;;;;-143.21;33.81;70692.28;5112907;27;20207;-84
2023/07/28 10:45:22;;;;;;;9.27;3.85;;;;;;;-143.21;32.84;70664.53;5113467;27;20245;-83
2023/07/28 10:47:49;;;;;;;6.63;3.35;;;;;;;-143.21;32.23;70638.75;5112956;27;20203;-84
2023/07/28 10:50:16;;;;;;;5.28;3.45;;;;;;;-143.21;31.61;70607.06;5113162;27;20211;-85
2023/07/28 10:52:45;;;;;;;4.45;3.45;;;;;;;-143.21;32.77;70581.28;5113061;27;20224;-89
2023/07/28 10:55:14;;;;;;;9.10;4.03;;;;;;;-143.21;32.68;70589.22;5112146;27;20227;-86
2023/07/28 10:57:43;;;;;;;5.05;3.92;;;;;;;-143.21;32.77;70589.22;5113020;27;20236;-85
2023/07/28 11:00:12;;;;;;;6.55;3.60;;;;;;;-143.21;31.70;70579.31;5114323;28;20208;-84
2023/07/28 11:02:43;;;;;;;5.68;3.55;;;;;;;-143.21;31.82;70571.38;5113232;27;20200;-88
2023/07/28 11:05:13;;;;;;;10.07;3.80;;;;;;;-143.21;32.52;70571.38;5114258;27;20215;-87
2023/07/28 11:07:43;;;;;;;9.70;4.13;;;;;;;-143.21;32.12;70573.34;5113303;27;20207;-87
2023/07/28 11:10:11;;;;;;;6.70;3.70;;;;;;;-143.21;32.04;70549.56;5113506;28;20645;-89
2023/07/28 11:12:42;;;;;;;6.18;3.20;;;;;;;-143.21;30.23;70545.59;5112934;27;20214;-85
2023/07/28 11:15:11;;;;;;;6.82;3.03;;;;;;;-143.21;30.21;70519.84;5112713;27;20219;-83
2023/07/28 11:17:39;;;;;;;4.30;3.13;;;;;;;-143.21;29.49;70478.22;5120256;27;20223;-86